createdAt,value
2019-05-18T00:00:40.108Z,7.89
2019-05-18T00:01:40.093Z,7.95
2019-05-18T00:02:40.083Z,7.86
2019-05-18T00:03:40.116Z,7.83
2019-05-18T00:04:40.081Z,7.92
2019-05-18T00:05:40.050Z,7.80
2019-05-18T00:06:40.039Z,7.79
2019-05-18T00:07:40.050Z,7.74
2019-05-18T00:08:40.015Z,7.83
2019-05-18T00:09:40.007Z,7.79
2019-05-18T00:10:39.995Z,7.77
2019-05-18T00:11:39.982Z,7.72
2019-05-18T00:12:40.000Z,7.67
2019-05-18T00:13:39.959Z,7.69
2019-05-18T00:14:39.948Z,7.71
2019-05-18T00:15:39.937Z,7.67
2019-05-18T00:16:39.927Z,7.68
2019-05-18T00:17:39.939Z,7.60
2019-05-18T00:18:39.903Z,7.61
2019-05-18T00:19:39.919Z,7.64
2019-05-18T00:20:39.880Z,7.58
2019-05-18T00:21:39.871Z,7.63
2019-05-18T00:22:39.874Z,7.68
2019-05-18T00:23:39.847Z,7.69
2019-05-18T00:24:39.859Z,7.68
2019-05-18T00:25:39.851Z,7.64
2019-05-18T00:26:39.814Z,7.67
2019-05-18T00:27:39.802Z,7.64
2019-05-18T00:28:39.795Z,7.58
2019-05-18T00:29:39.807Z,7.53
2019-05-18T00:30:39.770Z,7.49
2019-05-18T00:31:39.758Z,7.63
2019-05-18T00:32:39.745Z,7.49
2019-05-18T00:33:39.733Z,7.53
2019-05-18T00:34:39.746Z,7.60
2019-05-18T00:35:39.711Z,7.57
2019-05-18T00:36:39.699Z,7.58
2019-05-18T00:37:39.688Z,7.57
2019-05-18T00:38:39.679Z,7.61
2019-05-18T00:39:39.697Z,7.48
2019-05-18T00:40:39.654Z,7.46
2019-05-18T00:41:39.642Z,7.49
2019-05-18T00:42:39.675Z,7.52
2019-05-18T00:43:39.621Z,7.61
2019-05-18T00:44:39.638Z,7.64
2019-05-18T00:45:39.595Z,7.57
2019-05-18T00:46:39.584Z,7.50
2019-05-18T00:47:41.897Z,7.50
2019-05-18T00:48:39.564Z,7.45
2019-05-18T00:49:39.574Z,7.46
2019-05-18T00:50:39.550Z,7.49
2019-05-18T00:51:39.530Z,7.57
2019-05-18T00:52:39.517Z,7.48
2019-05-18T00:53:39.505Z,7.53
2019-05-18T00:54:39.519Z,7.50
2019-05-18T00:55:39.481Z,7.48
2019-05-18T00:56:39.471Z,7.35
2019-05-18T00:57:39.502Z,7.43
2019-05-18T00:58:39.448Z,7.31
2019-05-18T00:59:39.437Z,7.28
2019-05-18T01:00:39.427Z,7.25
2019-05-18T01:01:39.413Z,7.27
2019-05-18T01:02:39.425Z,7.28
2019-05-18T01:03:39.390Z,7.23
2019-05-18T01:04:39.381Z,7.24
2019-05-18T01:05:39.368Z,7.23
2019-05-18T01:06:39.356Z,7.30
2019-05-18T01:07:39.380Z,7.31
2019-05-18T01:08:39.333Z,7.23
2019-05-18T01:09:39.346Z,7.25
2019-05-18T01:10:39.314Z,7.25
2019-05-18T01:11:39.299Z,7.23
2019-05-18T01:12:39.286Z,7.07
2019-05-18T01:13:39.275Z,7.12
2019-05-18T01:14:39.283Z,7.10
2019-05-18T01:15:39.254Z,7.10
2019-05-18T01:16:39.242Z,7.06
2019-05-18T01:17:39.232Z,7.07
2019-05-18T01:18:39.218Z,6.98
2019-05-18T01:19:39.231Z,7.09
2019-05-18T01:20:39.195Z,7.03
2019-05-18T01:21:39.185Z,7.05
2019-05-18T01:22:39.197Z,7.07
2019-05-18T01:23:39.161Z,6.99
2019-05-18T01:24:39.150Z,6.94
2019-05-18T01:25:39.161Z,6.89
2019-05-18T01:26:39.128Z,6.97
2019-05-18T01:27:39.140Z,6.94
2019-05-18T01:28:39.104Z,6.97
2019-05-18T01:29:39.093Z,6.91
2019-05-18T01:30:39.081Z,6.84
2019-05-18T01:31:39.106Z,6.99
2019-05-18T01:32:39.058Z,6.94
2019-05-18T01:33:39.048Z,6.87
2019-05-18T01:34:39.036Z,6.87
2019-05-18T01:35:39.025Z,6.84
2019-05-18T01:36:39.037Z,6.79
2019-05-18T01:37:39.005Z,6.84
2019-05-18T01:38:39.018Z,6.87
2019-05-18T01:39:38.978Z,6.85
2019-05-18T01:40:38.967Z,6.87
2019-05-18T01:41:38.956Z,6.81
2019-05-18T01:42:38.950Z,6.80
2019-05-18T01:43:38.960Z,6.74
2019-05-18T01:44:38.925Z,6.73
2019-05-18T01:45:38.911Z,6.87
2019-05-18T01:46:38.899Z,6.79
2019-05-18T01:47:38.904Z,6.74
2019-05-18T01:48:38.878Z,6.67
2019-05-18T01:49:38.920Z,6.70
2019-05-18T01:50:38.857Z,6.80
2019-05-18T01:51:38.844Z,6.71
2019-05-18T01:52:38.858Z,6.76
2019-05-18T01:53:38.822Z,6.77
2019-05-18T01:54:38.811Z,6.66
2019-05-18T01:55:38.803Z,6.62
2019-05-18T01:56:38.790Z,6.70
2019-05-18T01:57:38.808Z,6.61
2019-05-18T01:58:38.767Z,6.66
2019-05-18T01:59:38.757Z,6.67
2019-05-18T02:00:38.748Z,6.67
2019-05-18T02:01:38.734Z,6.61
2019-05-18T02:02:38.752Z,6.64
2019-05-18T02:03:38.713Z,6.61
2019-05-18T02:04:38.702Z,6.70
2019-05-18T02:05:38.724Z,6.64
2019-05-18T02:06:38.680Z,6.59
2019-05-18T02:07:38.692Z,6.69
2019-05-18T02:08:38.659Z,6.62
2019-05-18T02:09:38.666Z,6.54
2019-05-18T02:10:38.635Z,6.58
2019-05-18T02:11:38.626Z,6.55
2019-05-18T02:12:38.675Z,6.46
2019-05-18T02:13:38.601Z,6.51
2019-05-18T02:14:38.614Z,6.44
2019-05-18T02:15:38.580Z,6.51
2019-05-18T02:16:38.602Z,6.52
2019-05-18T02:17:38.560Z,6.43
2019-05-18T02:18:38.566Z,6.44
2019-05-18T02:19:38.537Z,6.44
2019-05-18T02:20:38.525Z,6.40
2019-05-18T02:21:38.515Z,6.44
2019-05-18T02:22:38.536Z,6.44
2019-05-18T02:23:38.491Z,6.44
2019-05-18T02:24:38.480Z,6.40
2019-05-18T02:25:38.471Z,6.46
2019-05-18T02:26:38.460Z,6.28
2019-05-18T02:27:38.468Z,6.43
2019-05-18T02:28:38.442Z,6.28
2019-05-18T02:29:38.432Z,6.30
2019-05-18T02:30:38.439Z,6.33
2019-05-18T02:31:38.409Z,6.28
2019-05-18T02:32:38.421Z,6.33
2019-05-18T02:33:38.385Z,6.38
2019-05-18T02:34:38.374Z,6.33
2019-05-18T02:35:38.367Z,6.34
2019-05-18T02:36:38.352Z,6.34
2019-05-18T02:37:38.359Z,6.38
2019-05-18T02:38:38.327Z,6.44
2019-05-18T02:39:38.319Z,6.38
2019-05-18T02:40:38.330Z,6.36
2019-05-18T02:41:38.302Z,6.37
2019-05-18T02:42:38.285Z,6.44
2019-05-18T02:43:38.274Z,6.40
2019-05-18T02:44:38.263Z,6.27
2019-05-18T02:45:38.270Z,6.40
2019-05-18T02:46:38.242Z,6.33
2019-05-18T02:47:38.230Z,6.25
2019-05-18T02:48:48.614Z,6.28
2019-05-18T02:49:39.206Z,6.27
2019-05-18T02:50:38.222Z,6.25
2019-05-18T02:51:38.185Z,6.22
2019-05-18T02:52:38.177Z,6.17
2019-05-18T02:53:38.163Z,6.17
2019-05-18T02:54:38.153Z,6.17
2019-05-18T02:55:38.171Z,6.04
2019-05-18T02:56:38.141Z,6.12
2019-05-18T02:57:38.128Z,6.06
2019-05-18T02:58:38.114Z,6.08
2019-05-18T02:59:38.102Z,6.06
2019-05-18T03:00:38.119Z,6.01
2019-05-18T03:01:38.073Z,6.01
2019-05-18T03:02:38.062Z,6.04
2019-05-18T03:03:38.054Z,6.01
2019-05-18T03:04:38.041Z,5.94
2019-05-18T03:05:38.056Z,5.97
2019-05-18T03:06:38.019Z,5.91
2019-05-18T03:07:38.009Z,5.96
2019-05-18T03:08:38.019Z,5.94
2019-05-18T03:09:37.986Z,5.94
2019-05-18T03:10:37.973Z,5.94
2019-05-18T03:11:37.961Z,5.93
2019-05-18T03:12:37.950Z,5.91
2019-05-18T03:13:37.964Z,5.93
2019-05-18T03:14:37.930Z,5.99
2019-05-18T03:15:37.923Z,5.90
2019-05-18T03:16:37.931Z,5.82
2019-05-18T03:17:37.893Z,5.89
2019-05-18T03:18:37.911Z,5.86
2019-05-18T03:19:37.872Z,5.86
2019-05-18T03:20:37.860Z,5.85
2019-05-18T03:21:37.856Z,5.85
2019-05-18T03:22:37.865Z,5.79
2019-05-18T03:23:37.833Z,5.94
2019-05-18T03:24:37.815Z,5.81
2019-05-18T03:25:37.808Z,5.81
2019-05-18T03:26:37.793Z,5.85
2019-05-18T03:27:37.815Z,5.76
2019-05-18T03:28:37.772Z,5.91
2019-05-18T03:29:37.759Z,5.82
2019-05-18T03:30:37.747Z,5.81
2019-05-18T03:31:37.741Z,5.81
2019-05-18T03:32:37.780Z,5.96
2019-05-18T03:33:37.717Z,5.81
2019-05-18T03:34:37.703Z,5.83
2019-05-18T03:35:37.739Z,5.82
2019-05-18T03:36:37.687Z,5.82
2019-05-18T03:37:37.667Z,5.86
2019-05-18T03:38:37.673Z,5.85
2019-05-18T03:39:37.651Z,5.79
2019-05-18T03:40:37.641Z,5.91
2019-05-18T03:41:37.633Z,5.83
2019-05-18T03:42:37.613Z,5.79
2019-05-18T03:43:37.624Z,5.81
2019-05-18T03:44:37.612Z,5.89
2019-05-18T03:45:37.579Z,5.79
2019-05-18T03:46:37.567Z,5.86
2019-05-18T03:47:37.580Z,5.91
2019-05-18T03:48:37.544Z,5.86
2019-05-18T03:49:37.558Z,5.91
2019-05-18T03:50:37.547Z,5.94
2019-05-18T03:51:37.511Z,5.97
2019-05-18T03:52:37.498Z,5.94
2019-05-18T03:53:37.489Z,5.97
2019-05-18T03:54:37.500Z,5.96
2019-05-18T03:55:37.470Z,5.93
2019-05-18T03:56:37.471Z,6.00
2019-05-18T03:57:37.446Z,5.99
2019-05-18T03:58:37.433Z,5.99
2019-05-18T03:59:37.444Z,6.01
2019-05-18T04:00:37.414Z,6.01
2019-05-18T04:01:37.410Z,5.96
2019-05-18T04:02:37.389Z,6.01
2019-05-18T04:03:37.377Z,6.11
2019-05-18T04:04:37.391Z,5.97
2019-05-18T04:05:37.357Z,5.99
2019-05-18T04:06:37.398Z,6.04
2019-05-18T04:07:37.333Z,6.14
2019-05-18T04:08:37.322Z,6.12
2019-05-18T04:09:37.313Z,6.19
2019-05-18T04:10:37.303Z,6.17
2019-05-18T04:11:37.313Z,6.22
2019-05-18T04:12:37.310Z,6.28
2019-05-18T04:13:37.267Z,6.31
2019-05-18T04:14:37.261Z,6.38
2019-05-18T04:15:37.356Z,6.44
2019-05-18T04:16:37.257Z,6.48
2019-05-18T04:17:37.222Z,6.49
2019-05-18T04:18:37.212Z,6.54
2019-05-18T04:19:46.138Z,6.59
2019-05-18T04:20:38.188Z,6.62
2019-05-18T04:21:37.206Z,6.71
2019-05-18T04:22:37.170Z,6.80
2019-05-18T04:23:37.189Z,6.76
2019-05-18T04:24:37.150Z,6.76
2019-05-18T04:25:37.137Z,6.77
2019-05-18T04:26:37.126Z,6.85
2019-05-18T04:27:37.133Z,6.85
2019-05-18T04:28:37.103Z,6.79
2019-05-18T04:29:37.092Z,6.84
2019-05-18T04:30:37.084Z,6.88
2019-05-18T04:31:37.086Z,6.77
2019-05-18T04:32:37.058Z,6.77
2019-05-18T04:33:37.047Z,6.79
2019-05-18T04:34:37.059Z,6.79
2019-05-18T04:35:37.024Z,6.79
2019-05-18T04:36:37.038Z,6.89
2019-05-18T04:37:37.004Z,6.89
2019-05-18T04:38:36.993Z,6.89
2019-05-18T04:39:36.987Z,6.94
2019-05-18T04:40:36.994Z,6.91
2019-05-18T04:41:36.957Z,6.94
2019-05-18T04:42:36.949Z,6.97
2019-05-18T04:43:36.971Z,6.98
2019-05-18T04:44:36.926Z,7.09
2019-05-18T04:45:36.920Z,6.98
2019-05-18T04:46:36.906Z,7.07
2019-05-18T04:47:36.916Z,7.07
2019-05-18T04:48:36.883Z,7.09
2019-05-18T04:49:36.870Z,7.10
2019-05-18T04:50:36.872Z,7.21
2019-05-18T04:51:36.874Z,7.23
2019-05-18T04:52:36.844Z,7.27
2019-05-18T04:53:36.843Z,7.30
2019-05-18T04:54:36.814Z,7.30
2019-05-18T04:55:36.834Z,7.40
2019-05-18T04:56:36.815Z,7.50
2019-05-18T04:57:36.783Z,7.53
2019-05-18T04:58:36.792Z,7.58
2019-05-18T04:59:36.756Z,7.61
2019-05-18T05:00:36.746Z,7.46
2019-05-18T05:01:36.766Z,7.50
2019-05-18T05:02:36.722Z,7.50
2019-05-18T05:03:36.709Z,7.58
2019-05-18T05:04:36.698Z,7.53
2019-05-18T05:05:36.713Z,7.60
2019-05-18T05:06:36.676Z,7.72
2019-05-18T05:07:36.686Z,7.67
2019-05-18T05:08:36.652Z,7.80
2019-05-18T05:09:36.641Z,7.89
2019-05-18T05:10:36.653Z,7.86
2019-05-18T05:11:36.617Z,7.93
2019-05-18T05:12:36.609Z,8.02
2019-05-18T05:13:36.597Z,8.12
2019-05-18T05:14:36.584Z,8.23
2019-05-18T05:15:36.604Z,8.53
2019-05-18T05:16:36.598Z,8.71
2019-05-18T05:17:36.580Z,9.10
2019-05-18T05:18:36.539Z,9.21
2019-05-18T05:19:36.529Z,9.39
2019-05-18T05:20:36.516Z,9.39
2019-05-18T05:21:36.508Z,9.57
2019-05-18T05:22:36.512Z,9.46
2019-05-18T05:23:36.483Z,9.35
2019-05-18T05:24:36.473Z,9.40
2019-05-18T05:25:36.478Z,9.50
2019-05-18T05:26:39.306Z,9.53
2019-05-18T05:27:36.438Z,9.50
2019-05-18T05:28:36.427Z,9.72
2019-05-18T05:29:36.439Z,9.91
2019-05-18T05:30:36.405Z,10.09
2019-05-18T05:31:36.394Z,10.26
2019-05-18T05:32:36.382Z,10.18
2019-05-18T05:33:36.373Z,10.27
2019-05-18T05:34:36.383Z,10.33
2019-05-18T05:35:37.811Z,10.52
2019-05-18T05:36:36.337Z,10.67
2019-05-18T05:37:36.327Z,10.84
2019-05-18T05:38:36.315Z,10.82
2019-05-18T05:39:36.327Z,11.00
2019-05-18T05:40:36.292Z,11.11
2019-05-18T05:41:36.280Z,11.15
2019-05-18T05:42:36.270Z,11.11
2019-05-18T05:43:36.282Z,11.18
2019-05-18T05:44:36.248Z,11.25
2019-05-18T05:45:36.241Z,11.25
2019-05-18T05:46:37.421Z,11.36
2019-05-18T05:47:36.213Z,11.44
2019-05-18T05:48:36.228Z,11.47
2019-05-18T05:49:36.191Z,11.42
2019-05-18T05:50:36.791Z,11.46
2019-05-18T05:51:36.169Z,11.62
2019-05-18T05:52:36.156Z,11.61
2019-05-18T05:53:36.168Z,11.57
2019-05-18T05:54:36.134Z,11.73
2019-05-18T05:55:36.184Z,11.79
2019-05-18T05:56:36.111Z,12.07
2019-05-18T05:57:36.115Z,12.17
2019-05-18T05:58:36.094Z,12.31
2019-05-18T05:59:36.158Z,12.37
2019-05-18T06:00:36.071Z,12.54
2019-05-18T06:01:36.060Z,12.57
2019-05-18T06:02:36.043Z,12.79
2019-05-18T06:03:36.052Z,12.92
2019-05-18T06:04:36.023Z,12.86
2019-05-18T06:05:36.010Z,12.79
2019-05-18T06:06:36.000Z,12.70
2019-05-18T06:07:36.010Z,12.78
2019-05-18T06:08:35.976Z,12.82
2019-05-18T06:09:35.967Z,12.92
2019-05-18T06:10:35.953Z,13.01
2019-05-18T06:11:35.944Z,13.01
2019-05-18T06:12:35.959Z,13.10
2019-05-18T06:13:35.927Z,13.15
2019-05-18T06:14:35.913Z,13.42
2019-05-18T06:15:35.901Z,13.39
2019-05-18T06:16:35.906Z,13.44
2019-05-18T06:17:35.875Z,13.49
2019-05-18T06:18:35.866Z,13.48
2019-05-18T06:19:35.875Z,13.51
2019-05-18T06:20:50.108Z,13.51
2019-05-18T06:21:36.832Z,13.62
2019-05-18T06:22:35.845Z,13.60
2019-05-18T06:23:35.815Z,13.54
2019-05-18T06:24:35.818Z,13.51
2019-05-18T06:25:35.797Z,13.38
2019-05-18T06:26:35.795Z,13.29
2019-05-18T06:27:35.763Z,13.42
2019-05-18T06:28:35.771Z,13.66
2019-05-18T06:29:35.737Z,13.97
2019-05-18T06:30:35.727Z,13.75
2019-05-18T06:31:35.727Z,13.52
2019-05-18T06:32:35.746Z,13.49
2019-05-18T06:33:35.729Z,13.78
2019-05-18T06:34:35.680Z,13.75
2019-05-18T06:35:35.671Z,13.60
2019-05-18T06:36:35.683Z,13.60
2019-05-18T06:37:35.649Z,13.63
2019-05-18T06:38:35.663Z,13.54
2019-05-18T06:39:35.655Z,13.75
2019-05-18T06:40:35.631Z,13.87
2019-05-18T06:41:35.602Z,14.12
2019-05-18T06:42:35.591Z,14.09
2019-05-18T06:43:35.603Z,14.20
2019-05-18T06:44:35.570Z,14.21
2019-05-18T06:45:35.560Z,14.14
2019-05-18T06:46:35.547Z,14.28
2019-05-18T06:47:35.535Z,14.32
2019-05-18T06:48:35.554Z,14.28
2019-05-18T06:49:35.513Z,14.42
2019-05-18T06:50:35.501Z,14.52
2019-05-18T06:51:35.489Z,14.78
2019-05-18T06:52:35.479Z,14.91
2019-05-18T06:53:35.493Z,15.13
2019-05-18T06:54:35.456Z,15.38
2019-05-18T06:55:35.444Z,15.59
2019-05-18T06:56:35.457Z,15.64
2019-05-18T06:57:35.423Z,15.78
2019-05-18T06:58:35.442Z,15.78
2019-05-18T06:59:35.400Z,15.90
2019-05-18T07:00:35.388Z,16.01
2019-05-18T07:01:35.379Z,16.09
2019-05-18T07:02:35.366Z,16.24
2019-05-18T07:03:35.384Z,16.30
2019-05-18T07:04:35.346Z,16.43
2019-05-18T07:05:35.331Z,16.48
2019-05-18T07:06:35.320Z,16.28
2019-05-18T07:07:35.309Z,16.08
2019-05-18T07:08:35.316Z,16.02
2019-05-18T07:09:35.287Z,16.01
2019-05-18T07:10:35.310Z,16.05
2019-05-18T07:11:35.264Z,16.30
2019-05-18T07:12:35.279Z,16.39
2019-05-18T07:13:35.260Z,16.50
2019-05-18T07:14:35.230Z,16.60
2019-05-18T07:15:35.218Z,16.79
2019-05-18T07:16:35.224Z,16.91
2019-05-18T07:17:35.199Z,16.88
2019-05-18T07:18:35.195Z,16.89
2019-05-18T07:19:35.175Z,16.71
2019-05-18T07:20:35.186Z,16.46
2019-05-18T07:21:35.173Z,16.52
2019-05-18T07:22:35.141Z,16.30
2019-05-18T07:23:35.129Z,16.14
2019-05-18T07:24:35.117Z,16.34
2019-05-18T07:25:35.106Z,16.64
2019-05-18T07:26:35.121Z,16.71
2019-05-18T07:27:35.087Z,16.81
2019-05-18T07:28:35.074Z,16.94
2019-05-18T07:29:35.061Z,17.14
2019-05-18T07:30:35.073Z,17.12
2019-05-18T07:31:35.062Z,17.00
2019-05-18T07:32:35.029Z,17.16
2019-05-18T07:33:35.024Z,17.25
2019-05-18T07:34:35.013Z,17.54
2019-05-18T07:35:35.018Z,17.78
2019-05-18T07:36:34.984Z,17.96
2019-05-18T07:37:35.002Z,18.11
2019-05-18T07:38:34.961Z,18.21
2019-05-18T07:39:36.149Z,18.32
2019-05-18T07:40:34.967Z,18.55
2019-05-18T07:41:46.399Z,18.80
2019-05-18T07:42:35.919Z,18.78
2019-05-18T07:43:34.908Z,18.65
2019-05-18T07:44:34.894Z,18.63
2019-05-18T07:45:34.919Z,18.48
2019-05-18T07:46:34.873Z,18.45
2019-05-18T07:47:34.861Z,18.48
2019-05-18T07:48:34.849Z,18.50
2019-05-18T07:49:34.863Z,18.63
2019-05-18T07:50:34.826Z,18.42
2019-05-18T07:51:37.314Z,18.45
2019-05-18T07:52:34.803Z,18.78
2019-05-18T07:53:34.791Z,19.00
2019-05-18T07:54:34.804Z,19.14
2019-05-18T07:55:34.796Z,18.75
2019-05-18T07:56:34.775Z,18.27
2019-05-18T07:57:34.747Z,18.26
2019-05-18T07:58:34.766Z,18.15
2019-05-18T07:59:34.726Z,18.18
2019-05-18T08:00:34.744Z,18.08
2019-05-18T08:01:34.703Z,17.92
2019-05-18T08:02:34.698Z,17.64
2019-05-18T08:03:34.680Z,17.59
2019-05-18T08:04:34.691Z,18.21
2019-05-18T08:05:34.657Z,18.44
2019-05-18T08:06:34.653Z,18.57
2019-05-18T08:07:34.655Z,18.63
2019-05-18T08:08:34.622Z,18.60
2019-05-18T08:09:34.688Z,18.47
2019-05-18T08:10:34.630Z,18.42
2019-05-18T08:11:34.588Z,18.30
2019-05-18T08:12:34.585Z,18.25
2019-05-18T08:13:34.567Z,18.27
2019-05-18T08:14:34.557Z,18.32
2019-05-18T08:15:34.592Z,18.27
2019-05-18T08:16:34.533Z,18.03
2019-05-18T08:17:34.547Z,17.64
2019-05-18T08:18:34.516Z,17.23
2019-05-18T08:19:34.524Z,17.30
2019-05-18T08:20:34.493Z,17.40
2019-05-18T08:21:34.478Z,17.63
2019-05-18T08:22:34.467Z,17.75
2019-05-18T08:23:34.455Z,17.97
2019-05-18T08:24:34.467Z,18.25
2019-05-18T08:25:34.436Z,18.25
2019-05-18T08:26:34.441Z,18.27
2019-05-18T08:27:34.425Z,18.54
2019-05-18T08:28:34.424Z,18.78
2019-05-18T08:29:34.391Z,19.10
2019-05-18T08:30:34.377Z,19.31
2019-05-18T08:31:34.366Z,19.29
2019-05-18T08:32:34.368Z,19.31
2019-05-18T08:33:34.385Z,19.25
2019-05-18T08:34:34.338Z,19.33
2019-05-18T08:35:34.319Z,19.73
2019-05-18T08:36:34.307Z,19.94
2019-05-18T08:37:34.296Z,19.91
2019-05-18T08:38:34.315Z,20.16
2019-05-18T08:39:34.276Z,20.48
2019-05-18T08:40:34.292Z,20.23
2019-05-18T08:41:34.254Z,20.02
2019-05-18T08:42:34.244Z,19.86
2019-05-18T08:43:34.231Z,20.08
2019-05-18T08:44:34.231Z,19.98
2019-05-18T08:45:34.234Z,20.11
2019-05-18T08:46:34.199Z,20.05
2019-05-18T08:47:34.188Z,19.94
2019-05-18T08:48:34.175Z,19.96
2019-05-18T08:49:34.166Z,20.11
2019-05-18T08:50:34.176Z,20.47
2019-05-18T08:51:34.140Z,20.84
2019-05-18T08:52:35.168Z,20.99
2019-05-18T08:53:34.120Z,21.22
2019-05-18T08:54:34.121Z,21.38
2019-05-18T08:55:34.096Z,21.35
2019-05-18T08:56:34.085Z,21.27
2019-05-18T08:57:34.074Z,21.27
2019-05-18T08:58:34.089Z,21.12
2019-05-18T08:59:34.053Z,21.13
2019-05-18T09:00:34.041Z,21.25
2019-05-18T09:01:34.057Z,21.40
2019-05-18T09:02:34.051Z,21.50
2019-05-18T09:03:34.035Z,21.75
2019-05-18T09:04:34.001Z,21.96
2019-05-18T09:05:34.010Z,21.86
2019-05-18T09:06:33.977Z,21.71
2019-05-18T09:07:33.964Z,21.40
2019-05-18T09:08:33.955Z,21.37
2019-05-18T09:09:33.947Z,21.17
2019-05-18T09:10:33.957Z,21.13
2019-05-18T09:11:33.920Z,21.14
2019-05-18T09:12:33.910Z,21.14
2019-05-18T09:13:33.898Z,21.14
2019-05-18T09:14:33.890Z,21.19
2019-05-18T09:15:33.899Z,21.04
2019-05-18T09:16:33.866Z,21.28
2019-05-18T09:17:33.856Z,21.65
2019-05-18T09:18:33.866Z,21.99
2019-05-18T09:19:33.833Z,22.14
2019-05-18T09:20:33.963Z,22.22
2019-05-18T09:21:33.834Z,22.07
2019-05-18T09:22:33.817Z,22.20
2019-05-18T09:23:33.791Z,22.27
2019-05-18T09:24:33.785Z,22.00
2019-05-18T09:25:33.792Z,22.18
2019-05-18T09:26:33.755Z,22.28
2019-05-18T09:27:33.745Z,22.14
2019-05-18T09:28:33.734Z,22.20
2019-05-18T09:29:33.728Z,22.17
2019-05-18T09:30:33.742Z,22.15
2019-05-18T09:31:33.701Z,22.25
2019-05-18T09:32:33.714Z,22.28
2019-05-18T09:33:33.678Z,22.07
2019-05-18T09:34:33.669Z,22.10
2019-05-18T09:35:33.703Z,22.28
2019-05-18T09:36:33.668Z,22.55
2019-05-18T09:37:33.639Z,22.65
2019-05-18T09:38:33.707Z,22.83
2019-05-18T09:39:33.617Z,22.67
2019-05-18T09:40:33.607Z,22.61
2019-05-18T09:41:33.618Z,22.70
2019-05-18T09:42:33.580Z,22.88
2019-05-18T09:43:33.571Z,22.55
2019-05-18T09:44:33.557Z,22.03
2019-05-18T09:45:33.545Z,21.62
2019-05-18T09:46:33.553Z,21.40
2019-05-18T09:47:33.523Z,21.83
2019-05-18T09:48:33.537Z,22.31
2019-05-18T09:49:33.502Z,22.72
2019-05-18T09:50:33.495Z,22.75
2019-05-18T09:51:33.502Z,22.60
2019-05-18T09:52:44.818Z,22.76
2019-05-18T09:53:34.482Z,22.82
2019-05-18T09:54:33.446Z,22.83
2019-05-18T09:55:33.434Z,22.65
2019-05-18T09:56:33.423Z,22.62
2019-05-18T09:57:33.414Z,22.82
2019-05-18T09:58:33.424Z,22.79
2019-05-18T09:59:33.390Z,22.36
2019-05-18T10:00:38.554Z,22.17
2019-05-18T10:01:34.393Z,21.67
2019-05-18T10:02:33.356Z,21.35
2019-05-18T10:03:33.414Z,21.69
2019-05-18T10:04:33.336Z,22.14
2019-05-18T10:05:33.325Z,22.28
2019-05-18T10:06:33.328Z,22.36
2019-05-18T10:07:33.341Z,22.52
2019-05-18T10:08:33.292Z,22.88
2019-05-18T10:09:39.402Z,23.00
2019-05-18T10:10:34.267Z,23.33
2019-05-18T10:11:38.530Z,23.42
2019-05-18T10:12:34.282Z,23.32
2019-05-18T10:13:33.243Z,23.17
2019-05-18T10:14:33.224Z,23.22
2019-05-18T10:15:33.213Z,23.38
2019-05-18T10:16:33.207Z,23.38
2019-05-18T10:17:33.191Z,23.47
2019-05-18T10:18:33.213Z,23.20
2019-05-18T10:19:33.168Z,23.22
2019-05-18T10:20:33.166Z,23.36
2019-05-18T10:21:33.152Z,23.68
2019-05-18T10:22:33.139Z,23.75
2019-05-18T10:23:33.146Z,23.94
2019-05-18T10:24:33.113Z,24.40
2019-05-18T10:25:33.104Z,24.55
2019-05-18T10:26:33.092Z,24.67
2019-05-18T10:27:33.083Z,24.71
2019-05-18T10:28:33.122Z,24.42
2019-05-18T10:29:33.058Z,24.16
2019-05-18T10:30:33.049Z,24.24
2019-05-18T10:31:33.037Z,24.40
2019-05-18T10:32:33.026Z,24.34
2019-05-18T10:33:33.042Z,24.42
2019-05-18T10:34:33.007Z,24.34
2019-05-18T10:35:32.993Z,23.80
2019-05-18T10:36:33.087Z,24.03
2019-05-18T10:37:33.004Z,24.34
2019-05-18T10:38:32.961Z,24.57
2019-05-18T10:39:32.952Z,24.69
2019-05-18T10:40:32.940Z,24.71
2019-05-18T10:41:32.927Z,24.87
2019-05-18T10:42:32.958Z,24.57
2019-05-18T10:43:32.950Z,24.27
2019-05-18T10:44:32.911Z,24.30
2019-05-18T10:45:32.884Z,24.40
2019-05-18T10:46:32.874Z,24.09
2019-05-18T10:47:32.888Z,24.30
2019-05-18T10:48:32.850Z,24.35
2019-05-18T10:49:32.842Z,24.49
2019-05-18T10:50:32.852Z,24.13
2019-05-18T10:51:32.846Z,23.98
2019-05-18T10:52:32.808Z,24.12
2019-05-18T10:53:32.797Z,24.24
2019-05-18T10:54:32.798Z,24.43
2019-05-18T10:55:32.777Z,24.40
2019-05-18T10:56:32.780Z,24.58
2019-05-18T10:57:32.753Z,24.73
2019-05-18T10:58:32.778Z,24.83
2019-05-18T10:59:32.730Z,24.73
2019-05-18T11:00:32.720Z,24.90
2019-05-18T11:01:32.709Z,24.73
2019-05-18T11:02:32.751Z,24.73
2019-05-18T11:03:32.687Z,24.90
2019-05-18T11:04:32.682Z,24.80
2019-05-18T11:05:32.665Z,24.71
2019-05-18T11:06:32.676Z,24.83
2019-05-18T11:07:32.643Z,25.02
2019-05-18T11:08:32.631Z,24.78
2019-05-18T11:09:32.643Z,24.87
2019-05-18T11:10:32.609Z,24.77
2019-05-18T11:11:32.599Z,24.76
2019-05-18T11:12:32.602Z,24.39
2019-05-18T11:13:32.576Z,24.55
2019-05-18T11:14:32.566Z,24.69
2019-05-18T11:15:32.686Z,24.76
2019-05-18T11:16:32.543Z,24.71
2019-05-18T11:17:32.554Z,24.78
2019-05-18T11:18:32.521Z,24.76
2019-05-18T11:19:32.511Z,24.83
2019-05-18T11:20:32.530Z,24.95
2019-05-18T11:21:32.490Z,24.93
2019-05-18T11:22:32.501Z,24.80
2019-05-18T11:23:43.335Z,24.50
2019-05-18T11:24:33.455Z,24.27
2019-05-18T11:25:32.449Z,24.18
2019-05-18T11:26:32.438Z,23.98
2019-05-18T11:27:32.458Z,24.15
2019-05-18T11:28:32.411Z,24.34
2019-05-18T11:29:32.409Z,24.61
2019-05-18T11:30:32.416Z,24.53
2019-05-18T11:31:32.409Z,24.40
2019-05-18T11:32:32.368Z,24.24
2019-05-18T11:33:32.360Z,24.34
2019-05-18T11:34:32.350Z,24.18
2019-05-18T11:35:32.361Z,24.37
2019-05-18T11:36:32.326Z,24.25
2019-05-18T11:37:32.339Z,24.13
2019-05-18T11:38:32.302Z,24.31
2019-05-18T11:39:32.292Z,24.43
2019-05-18T11:40:32.284Z,24.50
2019-05-18T11:41:32.270Z,24.55
2019-05-18T11:42:32.291Z,24.43
2019-05-18T11:43:32.249Z,24.05
2019-05-18T11:44:32.242Z,23.75
2019-05-18T11:45:32.227Z,23.68
2019-05-18T11:46:32.231Z,23.53
2019-05-18T11:47:32.204Z,23.66
2019-05-18T11:48:32.212Z,23.63
2019-05-18T11:49:32.184Z,23.85
2019-05-18T11:50:32.172Z,23.68
2019-05-18T11:51:32.198Z,23.35
2019-05-18T11:52:32.165Z,23.38
2019-05-18T11:53:32.139Z,23.13
2019-05-18T11:54:32.129Z,23.33
2019-05-18T11:55:32.117Z,23.46
2019-05-18T11:56:32.130Z,23.46
2019-05-18T11:57:32.095Z,23.60
2019-05-18T11:58:32.097Z,23.69
2019-05-18T11:59:32.073Z,23.46
2019-05-18T12:00:32.061Z,23.36
2019-05-18T12:01:32.075Z,23.32
2019-05-18T12:02:32.042Z,23.55
2019-05-18T12:03:32.030Z,23.69
2019-05-18T12:04:32.017Z,23.69
2019-05-18T12:05:32.007Z,23.90
2019-05-18T12:06:32.020Z,24.08
2019-05-18T12:07:31.984Z,24.05
2019-05-18T12:08:31.974Z,24.20
2019-05-18T12:09:31.974Z,24.20
2019-05-18T12:10:31.991Z,24.12
2019-05-18T12:11:31.941Z,23.95
2019-05-18T12:12:31.933Z,23.97
2019-05-18T12:13:31.917Z,23.73
2019-05-18T12:14:31.907Z,23.79
2019-05-18T12:15:31.923Z,23.69
2019-05-18T12:16:31.885Z,23.80
2019-05-18T12:17:31.872Z,23.98
2019-05-18T12:18:31.863Z,24.16
2019-05-18T12:19:31.861Z,24.34
2019-05-18T12:20:31.863Z,24.21
2019-05-18T12:21:31.829Z,23.95
2019-05-18T12:22:31.841Z,23.88
2019-05-18T12:23:31.830Z,23.78
2019-05-18T12:24:31.803Z,23.78
2019-05-18T12:25:31.808Z,23.88
2019-05-18T12:26:31.777Z,23.73
2019-05-18T12:27:31.789Z,23.46
2019-05-18T12:28:31.752Z,23.40
2019-05-18T12:29:31.742Z,23.57
2019-05-18T12:30:31.733Z,23.73
2019-05-18T12:31:31.735Z,24.02
2019-05-18T12:32:31.708Z,24.21
2019-05-18T12:33:31.698Z,24.40
2019-05-18T12:34:31.687Z,24.34
2019-05-18T12:35:31.678Z,23.83
2019-05-18T12:36:31.699Z,23.63
2019-05-18T12:37:31.654Z,23.42
2019-05-18T12:38:31.642Z,23.46
2019-05-18T12:39:31.632Z,23.39
2019-05-18T12:40:31.621Z,23.19
2019-05-18T12:41:31.626Z,23.23
2019-05-18T12:42:31.606Z,23.12
2019-05-18T12:43:31.616Z,22.98
2019-05-18T12:44:31.575Z,22.86
2019-05-18T12:45:31.564Z,22.97
2019-05-18T12:46:31.583Z,23.19
2019-05-18T12:47:31.544Z,23.27
2019-05-18T12:48:31.531Z,23.31
2019-05-18T12:49:31.552Z,23.22
2019-05-18T12:50:31.509Z,23.39
2019-05-18T12:51:31.498Z,23.61
2019-05-18T12:52:31.487Z,23.53
2019-05-18T12:53:31.476Z,23.20
2019-05-18T12:54:45.675Z,22.67
2019-05-18T12:55:32.458Z,22.57
2019-05-18T12:56:31.443Z,22.40
2019-05-18T12:57:31.434Z,22.25
2019-05-18T12:58:31.421Z,22.18
2019-05-18T12:59:31.433Z,22.22
2019-05-18T13:00:31.399Z,22.31
2019-05-18T13:01:31.416Z,22.25
2019-05-18T13:02:31.402Z,22.10
2019-05-18T13:03:31.368Z,22.17